createdAt,value
2017-08-19T00:01:13.869Z,2.77
2017-08-19T00:03:41.430Z,2.30
2017-08-19T00:06:08.977Z,2.30
2017-08-19T00:08:36.839Z,2.50
2017-08-19T00:11:04.396Z,2.60
2017-08-19T00:13:31.953Z,2.50
2017-08-19T00:15:59.521Z,2.13
2017-08-19T00:18:27.072Z,2.60
2017-08-19T00:20:54.645Z,2.70
2017-08-19T00:23:22.186Z,2.80
2017-08-19T00:25:49.746Z,2.33
2017-08-19T00:28:17.685Z,2.67
2017-08-19T00:30:45.245Z,2.30
2017-08-19T00:33:12.796Z,2.40
2017-08-19T00:35:40.373Z,2.17
2017-08-19T00:38:07.930Z,2.67
2017-08-19T00:40:35.529Z,2.10
2017-08-19T00:43:03.496Z,2.30
2017-08-19T00:45:31.067Z,2.03
2017-08-19T00:47:58.831Z,2.50
2017-08-19T00:50:26.399Z,2.53
2017-08-19T00:52:53.969Z,2.13
2017-08-19T00:55:21.613Z,1.97
2017-08-19T00:57:49.202Z,2.60
2017-08-19T01:00:16.759Z,1.93
2017-08-19T01:02:44.326Z,2.20
2017-08-19T01:05:11.896Z,2.10
2017-08-19T01:07:39.444Z,2.07
2017-08-19T01:10:06.982Z,2.27
2017-08-19T01:12:34.536Z,2.23
2017-08-19T01:15:02.129Z,4.57
2017-08-19T01:17:29.689Z,2.43
2017-08-19T01:19:57.237Z,1.93
2017-08-19T01:22:24.808Z,2.50
2017-08-19T01:24:52.409Z,1.97
2017-08-19T01:27:20.008Z,2.27
2017-08-19T01:29:47.575Z,2.00
2017-08-19T01:32:15.158Z,1.73
2017-08-19T01:34:43.464Z,1.97
2017-08-19T01:37:11.300Z,1.90
2017-08-19T01:39:38.828Z,2.10
2017-08-19T01:42:06.386Z,3.20
2017-08-19T01:44:33.969Z,2.00
2017-08-19T01:47:02.275Z,2.40
2017-08-19T01:49:29.851Z,2.03
2017-08-19T01:51:57.495Z,1.80
2017-08-19T01:54:25.069Z,2.20
2017-08-19T01:56:52.620Z,2.03
2017-08-19T01:59:20.193Z,2.27
2017-08-19T02:01:47.752Z,2.03
2017-08-19T02:04:15.295Z,2.67
2017-08-19T02:06:42.865Z,2.10
2017-08-19T02:09:10.404Z,2.33
2017-08-19T02:11:37.957Z,1.67
2017-08-19T02:14:05.505Z,2.43
2017-08-19T02:16:33.091Z,2.20
2017-08-19T02:19:00.722Z,2.00
2017-08-19T02:21:29.053Z,2.43
2017-08-19T02:23:56.604Z,2.00
2017-08-19T02:26:24.172Z,2.60
2017-08-19T02:28:51.719Z,2.57
2017-08-19T02:31:19.581Z,2.20
2017-08-19T02:33:47.138Z,1.97
2017-08-19T02:36:14.696Z,2.10
2017-08-19T02:38:42.273Z,3.13
2017-08-19T02:41:09.839Z,2.20
2017-08-19T02:43:37.356Z,2.20
2017-08-19T02:46:04.916Z,2.50
2017-08-19T02:48:32.469Z,2.30
2017-08-19T02:51:01.137Z,2.00
2017-08-19T02:53:28.682Z,2.00
2017-08-19T02:55:56.223Z,4.13
2017-08-19T02:58:23.761Z,2.63
2017-08-19T03:00:51.303Z,2.60
2017-08-19T03:03:18.879Z,2.33
2017-08-19T03:05:46.414Z,2.63
2017-08-19T03:08:13.964Z,2.50
2017-08-19T03:10:41.532Z,2.60
2017-08-19T03:13:09.092Z,2.60
2017-08-19T03:15:36.640Z,2.17
2017-08-19T03:18:04.184Z,2.40
2017-08-19T03:20:32.590Z,2.50
2017-08-19T03:23:00.186Z,2.33
2017-08-19T03:25:27.727Z,2.57
2017-08-19T03:27:55.294Z,2.50
2017-08-19T03:30:22.851Z,2.30
2017-08-19T03:32:50.770Z,2.43
2017-08-19T03:35:18.302Z,2.10
2017-08-19T03:37:45.818Z,2.40
2017-08-19T03:40:13.381Z,2.00
2017-08-19T03:42:40.945Z,2.53
2017-08-19T03:45:08.531Z,2.00
2017-08-19T03:47:36.054Z,2.50
2017-08-19T03:50:03.646Z,1.77
2017-08-19T03:52:31.185Z,2.30
2017-08-19T03:54:58.741Z,1.93
2017-08-19T03:57:26.296Z,2.40
2017-08-19T03:59:53.837Z,2.23
2017-08-19T04:02:21.436Z,1.67
2017-08-19T04:04:48.987Z,1.90
2017-08-19T04:07:16.538Z,2.43
2017-08-19T04:09:44.095Z,1.93
2017-08-19T04:12:11.621Z,2.00
2017-08-19T04:14:39.169Z,2.50
2017-08-19T04:17:06.700Z,2.20
2017-08-19T04:19:34.238Z,2.03
2017-08-19T04:22:01.758Z,2.00
2017-08-19T04:24:29.401Z,2.03
2017-08-19T04:26:56.965Z,2.37
2017-08-19T04:29:24.507Z,2.40
2017-08-19T04:31:52.059Z,1.90
2017-08-19T04:34:19.677Z,2.13
2017-08-19T04:36:47.255Z,2.67
2017-08-19T04:39:14.796Z,2.30
2017-08-19T04:41:42.622Z,2.30
2017-08-19T04:44:10.164Z,2.07
2017-08-19T04:46:37.734Z,2.17
2017-08-19T04:49:05.281Z,2.87
2017-08-19T04:51:32.836Z,2.23
2017-08-19T04:54:00.524Z,2.20
2017-08-19T04:56:28.059Z,3.10
2017-08-19T04:58:55.620Z,2.03
2017-08-19T05:01:24.047Z,2.23
2017-08-19T05:03:51.598Z,2.60
2017-08-19T05:06:19.162Z,2.10
2017-08-19T05:08:46.743Z,2.60
2017-08-19T05:11:14.305Z,2.70
2017-08-19T05:13:41.837Z,3.10
2017-08-19T05:16:10.342Z,2.10
2017-08-19T05:18:37.903Z,2.30
2017-08-19T05:21:05.472Z,3.13
2017-08-19T05:23:33.033Z,2.83
2017-08-19T05:26:00.581Z,2.70
2017-08-19T05:28:28.148Z,2.10
2017-08-19T05:30:55.698Z,1.97
2017-08-19T05:33:23.262Z,2.43
2017-08-19T05:35:50.835Z,2.70
2017-08-19T05:38:18.380Z,2.90
2017-08-19T05:40:45.967Z,1.93
2017-08-19T05:43:13.546Z,2.40
2017-08-19T05:45:41.106Z,2.30
2017-08-19T05:48:08.641Z,2.20
2017-08-19T05:50:36.739Z,2.00
2017-08-19T05:53:04.272Z,2.23
2017-08-19T05:55:31.813Z,2.40
2017-08-19T05:57:59.366Z,2.30
2017-08-19T06:00:26.901Z,2.30
2017-08-19T06:02:55.294Z,2.00
2017-08-19T06:05:22.880Z,2.30
2017-08-19T06:07:50.441Z,2.10
2017-08-19T06:10:18.011Z,2.00
2017-08-19T06:12:45.578Z,1.57
2017-08-19T06:15:13.155Z,2.47
2017-08-19T06:17:40.712Z,1.83
2017-08-19T06:20:08.269Z,1.80
2017-08-19T06:22:35.807Z,1.80
2017-08-19T06:25:03.371Z,1.80
2017-08-19T06:27:30.922Z,1.90
2017-08-19T06:29:58.482Z,2.60
2017-08-19T06:32:26.052Z,1.50
2017-08-19T06:34:53.597Z,1.50
2017-08-19T06:37:21.164Z,2.43
2017-08-19T06:39:48.723Z,2.83
2017-08-19T06:42:16.276Z,2.27
2017-08-19T06:44:43.848Z,1.80
2017-08-19T06:47:11.422Z,2.20
2017-08-19T06:49:38.986Z,2.63
2017-08-19T06:52:06.557Z,1.70
2017-08-19T06:54:34.085Z,1.40
2017-08-19T06:57:01.639Z,1.70
2017-08-19T06:59:31.491Z,2.00
2017-08-19T07:01:59.960Z,1.93
2017-08-19T07:04:27.614Z,1.73
2017-08-19T07:06:56.329Z,1.80
2017-08-19T07:09:24.024Z,1.93
2017-08-19T07:11:51.828Z,1.77
2017-08-19T07:14:19.721Z,1.50
2017-08-19T07:16:47.343Z,2.00
2017-08-19T07:19:15.037Z,2.30
2017-08-19T07:21:42.627Z,1.50
2017-08-19T07:24:10.191Z,2.17
2017-08-19T07:26:37.818Z,1.23
2017-08-19T07:29:05.446Z,1.50
2017-08-19T07:31:33.083Z,1.80
2017-08-19T07:34:00.705Z,1.50
2017-08-19T07:36:28.310Z,1.93
2017-08-19T07:38:55.890Z,2.13
2017-08-19T07:41:23.428Z,1.80
2017-08-19T07:43:51.011Z,1.73
2017-08-19T07:46:18.552Z,1.97
2017-08-19T07:48:46.120Z,2.13
2017-08-19T07:51:13.712Z,2.00
2017-08-19T07:53:41.276Z,2.80
2017-08-19T07:56:08.849Z,3.17
2017-08-19T07:58:37.213Z,2.27
2017-08-19T08:01:04.769Z,1.63
2017-08-19T08:03:32.324Z,1.70
2017-08-19T08:06:00.410Z,2.17
2017-08-19T08:08:27.983Z,1.17
2017-08-19T08:10:55.575Z,2.10
2017-08-19T08:13:23.190Z,1.77
2017-08-19T08:15:50.763Z,1.60
2017-08-19T08:18:18.318Z,1.77
2017-08-19T08:20:45.881Z,1.53
2017-08-19T08:23:13.461Z,1.63
2017-08-19T08:25:41.007Z,1.60
2017-08-19T08:28:08.607Z,1.70
2017-08-19T08:30:36.187Z,1.40
2017-08-19T08:33:03.736Z,1.60
2017-08-19T08:35:31.288Z,1.83
2017-08-19T08:37:58.930Z,1.20
2017-08-19T08:40:26.913Z,1.60
2017-08-19T08:42:54.519Z,1.50
2017-08-19T08:45:22.070Z,1.60
2017-08-19T08:47:49.639Z,2.20
2017-08-19T08:50:17.219Z,1.93
2017-08-19T08:52:44.774Z,1.90
2017-08-19T08:55:12.327Z,1.30
2017-08-19T08:57:40.291Z,2.57
2017-08-19T09:00:08.607Z,1.20
2017-08-19T09:02:36.145Z,1.80
2017-08-19T09:05:03.696Z,1.60
2017-08-19T09:07:31.247Z,1.87
2017-08-19T09:09:58.804Z,1.70
2017-08-19T09:12:26.356Z,1.70
2017-08-19T09:14:53.919Z,1.70
2017-08-19T09:17:21.486Z,1.80
2017-08-19T09:19:49.053Z,1.20
2017-08-19T09:22:17.392Z,1.30
2017-08-19T09:24:44.956Z,1.37
2017-08-19T09:27:12.516Z,1.60
2017-08-19T09:29:40.108Z,1.43
2017-08-19T09:32:08.728Z,1.80
2017-08-19T09:34:36.288Z,2.20
2017-08-19T09:37:03.843Z,2.10
2017-08-19T09:39:31.444Z,1.90
2017-08-19T09:41:58.986Z,2.90
2017-08-19T09:44:26.569Z,1.43
2017-08-19T09:46:54.136Z,2.13
2017-08-19T09:49:21.704Z,1.30
2017-08-19T09:51:49.275Z,2.10
2017-08-19T09:54:16.901Z,1.40
2017-08-19T09:56:45.357Z,1.57
2017-08-19T09:59:12.975Z,1.70
2017-08-19T10:01:40.548Z,1.37
2017-08-19T10:04:08.135Z,1.97
2017-08-19T10:06:36.124Z,1.53
2017-08-19T10:09:15.416Z,1.73
2017-08-19T10:11:43.031Z,2.20
2017-08-19T10:14:11.362Z,1.47
2017-08-19T10:16:38.911Z,1.73
2017-08-19T10:19:06.496Z,1.97
2017-08-19T10:21:34.037Z,1.23
2017-08-19T10:24:01.609Z,1.80
2017-08-19T10:26:29.188Z,1.40
2017-08-19T10:28:56.758Z,1.43
2017-08-19T10:31:24.335Z,1.57
2017-08-19T10:33:52.679Z,1.77
2017-08-19T10:36:20.269Z,1.83
2017-08-19T10:38:47.823Z,1.53
2017-08-19T10:41:15.755Z,1.80
2017-08-19T10:43:43.314Z,1.53
2017-08-19T10:46:10.853Z,1.30
2017-08-19T10:48:38.432Z,1.30
2017-08-19T10:51:05.977Z,2.00
2017-08-19T10:53:33.534Z,1.67
2017-08-19T10:56:01.085Z,2.13
2017-08-19T10:58:28.653Z,1.70
2017-08-19T11:00:56.226Z,1.57
2017-08-19T11:03:23.879Z,1.77
2017-08-19T11:05:51.459Z,1.60
2017-08-19T11:08:19.017Z,1.83
2017-08-19T11:10:46.583Z,2.10
2017-08-19T11:13:14.150Z,1.40
2017-08-19T11:15:41.982Z,1.50
2017-08-19T11:18:09.639Z,1.83
2017-08-19T11:20:37.196Z,1.37
2017-08-19T11:23:04.747Z,1.57
2017-08-19T11:25:32.302Z,1.87
2017-08-19T11:28:00.697Z,1.43
2017-08-19T11:30:28.260Z,1.87
2017-08-19T11:32:56.090Z,1.73
2017-08-19T11:35:23.637Z,1.70
2017-08-19T11:37:51.189Z,1.50
2017-08-19T11:40:18.892Z,1.60
2017-08-19T11:42:46.516Z,1.67
2017-08-19T11:45:14.098Z,1.67
2017-08-19T11:47:41.662Z,1.50
2017-08-19T11:50:09.433Z,1.93
2017-08-19T11:52:37.023Z,1.70
2017-08-19T11:55:04.596Z,1.77
2017-08-19T11:57:32.180Z,1.70
2017-08-19T11:59:59.873Z,1.80
2017-08-19T12:02:27.498Z,2.03
2017-08-19T12:04:55.040Z,1.77
2017-08-19T12:07:23.026Z,1.53
2017-08-19T12:09:50.564Z,1.30
2017-08-19T12:12:18.124Z,2.77
2017-08-19T12:14:45.683Z,1.70
2017-08-19T12:17:13.239Z,1.70
2017-08-19T12:19:40.809Z,1.60
2017-08-19T12:22:08.520Z,1.80
2017-08-19T12:24:36.486Z,1.40
2017-08-19T12:27:04.128Z,2.20
2017-08-19T12:29:31.695Z,1.70
2017-08-19T12:31:59.329Z,2.70
2017-08-19T12:34:26.947Z,1.40
2017-08-19T12:36:54.534Z,1.70
2017-08-19T12:39:22.119Z,1.70
2017-08-19T12:41:50.114Z,1.50
2017-08-19T12:44:17.665Z,1.57
2017-08-19T12:46:45.283Z,2.60
2017-08-19T12:49:12.905Z,1.53
2017-08-19T12:51:40.453Z,1.80
2017-08-19T12:54:08.077Z,2.10
2017-08-19T12:56:35.702Z,1.73
2017-08-19T12:59:03.560Z,2.03
2017-08-19T13:01:31.185Z,1.80
2017-08-19T13:03:59.532Z,1.40
2017-08-19T13:06:27.099Z,1.20
2017-08-19T13:08:54.631Z,1.57
2017-08-19T13:11:22.185Z,1.80
2017-08-19T13:13:49.733Z,1.57
2017-08-19T13:16:17.367Z,1.90
2017-08-19T13:18:45.525Z,1.73
2017-08-19T13:21:13.224Z,1.90
2017-08-19T13:23:40.874Z,2.27
2017-08-19T13:26:08.771Z,2.20
2017-08-19T13:28:36.366Z,2.20
2017-08-19T13:31:04.241Z,2.80
2017-08-19T13:33:31.876Z,1.53
2017-08-19T13:35:59.468Z,1.33
2017-08-19T13:38:27.018Z,1.63
2017-08-19T13:40:54.867Z,1.53
2017-08-19T13:43:22.424Z,1.30
2017-08-19T13:45:49.975Z,2.10
2017-08-19T13:48:17.546Z,1.50
2017-08-19T13:50:45.096Z,1.50
2017-08-19T13:53:12.657Z,1.50
2017-08-19T13:55:40.214Z,1.70
2017-08-19T13:58:08.213Z,1.73
2017-08-19T14:00:35.793Z,1.60
2017-08-19T14:03:03.327Z,1.73
2017-08-19T14:05:30.901Z,1.37
2017-08-19T14:07:58.449Z,1.30
2017-08-19T14:10:26.033Z,1.80
2017-08-19T14:13:01.836Z,1.60
2017-08-19T14:15:29.655Z,1.77
2017-08-19T14:17:57.209Z,1.30
2017-08-19T14:20:24.786Z,1.50
2017-08-19T14:22:52.340Z,1.53
2017-08-19T14:25:20.823Z,2.00
2017-08-19T14:27:48.374Z,1.87
2017-08-19T14:30:15.943Z,2.00
2017-08-19T14:32:43.536Z,2.03
2017-08-19T14:35:11.074Z,1.60
2017-08-19T14:37:38.647Z,2.07
2017-08-19T14:40:06.231Z,1.63
2017-08-19T14:42:33.797Z,1.50
2017-08-19T14:45:01.349Z,1.47
2017-08-19T14:47:29.027Z,1.43
2017-08-19T14:49:56.596Z,1.80
2017-08-19T14:52:24.170Z,1.90
2017-08-19T14:54:51.903Z,1.40
2017-08-19T14:57:19.480Z,1.20
2017-08-19T14:59:47.072Z,2.13
2017-08-19T15:02:14.749Z,1.50
2017-08-19T15:04:42.319Z,2.77
2017-08-19T15:07:09.899Z,2.30
2017-08-19T15:09:37.482Z,2.17
2017-08-19T15:12:05.820Z,2.37
2017-08-19T15:14:33.400Z,2.40
2017-08-19T15:17:01.095Z,1.70
2017-08-19T15:19:29.463Z,1.77
2017-08-19T15:21:57.035Z,1.70
2017-08-19T15:24:25.475Z,2.20
2017-08-19T15:26:53.020Z,1.50
2017-08-19T15:29:20.615Z,1.70
2017-08-19T15:31:48.276Z,1.70
2017-08-19T15:34:16.658Z,2.13
2017-08-19T15:36:44.255Z,1.57
2017-08-19T15:39:11.866Z,1.70
2017-08-19T15:41:39.766Z,1.60
2017-08-19T15:44:07.391Z,1.97
2017-08-19T15:46:34.922Z,2.37
2017-08-19T15:49:02.489Z,2.07
2017-08-19T15:51:30.053Z,1.50
2017-08-19T15:53:57.648Z,1.43
2017-08-19T15:56:25.295Z,1.57
2017-08-19T15:58:52.881Z,1.80
2017-08-19T16:01:20.450Z,1.80
2017-08-19T16:03:48.031Z,1.87
2017-08-19T16:06:15.620Z,2.27
2017-08-19T16:08:43.178Z,1.90
2017-08-19T16:11:11.100Z,2.00
2017-08-19T16:13:38.657Z,2.00
2017-08-19T16:16:06.231Z,1.70
2017-08-19T16:18:34.793Z,1.90
2017-08-19T16:21:02.361Z,1.70
2017-08-19T16:23:30.007Z,1.90
2017-08-19T16:25:58.358Z,1.90
2017-08-19T16:28:26.385Z,1.90
2017-08-19T16:30:53.946Z,1.57
2017-08-19T16:33:21.513Z,1.80
2017-08-19T16:35:49.080Z,1.67
2017-08-19T16:38:16.714Z,1.77
2017-08-19T16:40:45.206Z,2.40
2017-08-19T16:43:12.865Z,1.60
2017-08-19T16:45:40.525Z,2.17
2017-08-19T16:48:08.169Z,2.20
2017-08-19T16:50:35.839Z,2.53
2017-08-19T16:53:03.499Z,2.10
2017-08-19T16:55:31.082Z,2.60
2017-08-19T16:57:58.767Z,2.00
2017-08-19T17:00:26.410Z,2.00
2017-08-19T17:02:54.633Z,2.23
2017-08-19T17:05:22.277Z,2.00
2017-08-19T17:07:49.892Z,2.03
2017-08-19T17:10:17.565Z,2.57
2017-08-19T17:12:45.272Z,2.53
2017-08-19T17:15:12.977Z,2.70
2017-08-19T17:17:40.636Z,3.20
2017-08-19T17:20:08.587Z,3.50
2017-08-19T17:22:36.193Z,3.37
2017-08-19T17:25:03.903Z,3.47
2017-08-19T17:27:31.999Z,2.97
2017-08-19T17:29:59.949Z,2.93
2017-08-19T17:32:27.718Z,3.73
2017-08-19T17:34:55.410Z,3.60
2017-08-19T17:37:23.437Z,3.03
2017-08-19T17:39:51.130Z,3.03
2017-08-19T17:42:18.796Z,2.80
2017-08-19T17:44:46.462Z,3.47
2017-08-19T17:47:14.451Z,2.93
2017-08-19T17:49:42.133Z,3.40
2017-08-19T17:52:09.828Z,3.50
2017-08-19T17:54:37.509Z,3.17
2017-08-19T17:57:05.157Z,4.07
2017-08-19T17:59:32.823Z,3.10
2017-08-19T18:02:00.512Z,3.80
2017-08-19T18:04:28.130Z,3.43
2017-08-19T18:06:56.376Z,3.33
2017-08-19T18:09:25.037Z,3.37
2017-08-19T18:11:53.598Z,3.40
2017-08-19T18:14:21.428Z,4.00
2017-08-19T18:16:49.126Z,3.93
2017-08-19T18:19:16.805Z,2.83
2017-08-19T18:21:44.480Z,3.50
2017-08-19T18:24:13.251Z,2.70
2017-08-19T18:26:40.843Z,3.60
2017-08-19T18:29:08.542Z,4.10
2017-08-19T18:31:36.115Z,3.63
2017-08-19T18:34:03.686Z,5.50
2017-08-19T18:36:31.569Z,3.77
2017-08-19T18:38:59.124Z,3.53
2017-08-19T18:41:26.693Z,4.40
2017-08-19T18:43:54.289Z,3.77
2017-08-19T18:46:21.849Z,3.47
2017-08-19T18:48:49.442Z,3.67
2017-08-19T18:51:17.064Z,4.80
2017-08-19T18:53:48.154Z,3.00
2017-08-19T18:56:16.134Z,2.50
2017-08-19T18:58:43.703Z,2.87
2017-08-19T19:01:11.356Z,2.50
2017-08-19T19:03:39.054Z,3.37
2017-08-19T19:06:06.752Z,3.03
2017-08-19T19:08:34.449Z,2.93
2017-08-19T19:11:02.399Z,2.90
2017-08-19T19:13:30.165Z,3.27
2017-08-19T19:15:57.734Z,2.83
2017-08-19T19:18:25.525Z,3.53
2017-08-19T19:20:53.207Z,3.80
2017-08-19T19:23:21.142Z,5.03
2017-08-19T19:25:48.789Z,3.33
2017-08-19T19:28:16.461Z,3.80
2017-08-19T19:30:44.275Z,4.60
2017-08-19T19:33:11.865Z,4.30
2017-08-19T19:35:39.572Z,4.13
2017-08-19T19:38:07.251Z,3.57
2017-08-19T19:40:35.125Z,3.57
2017-08-19T19:43:05.293Z,4.30
2017-08-19T19:45:34.055Z,3.73
2017-08-19T19:48:01.762Z,4.40
2017-08-19T19:50:29.473Z,3.80
2017-08-19T19:52:57.303Z,3.70
2017-08-19T19:55:27.909Z,3.10
2017-08-19T19:57:55.991Z,3.90
2017-08-19T20:00:24.589Z,3.50
2017-08-19T20:02:52.329Z,3.00
2017-08-19T20:05:19.974Z,3.23
2017-08-19T20:07:50.618Z,4.27
2017-08-19T20:10:18.685Z,3.30
2017-08-19T20:12:46.475Z,3.90
2017-08-19T20:15:14.324Z,3.40
2017-08-19T20:17:42.745Z,4.33
2017-08-19T20:20:10.446Z,4.43
2017-08-19T20:22:38.311Z,4.40
2017-08-19T20:25:06.063Z,4.23
2017-08-19T20:27:33.723Z,4.00
2017-08-19T20:30:01.460Z,4.10
2017-08-19T20:32:29.193Z,5.30
2017-08-19T20:34:56.847Z,4.57
2017-08-19T20:37:24.468Z,4.20
2017-08-19T20:39:52.361Z,3.37
2017-08-19T20:42:20.040Z,3.77
2017-08-19T20:44:47.692Z,3.67
2017-08-19T20:47:15.334Z,4.17
2017-08-19T20:49:43.093Z,3.60
2017-08-19T20:52:10.702Z,4.90
2017-08-19T20:54:38.451Z,4.30
2017-08-19T20:57:06.689Z,3.90
2017-08-19T20:59:34.254Z,3.70
2017-08-19T21:02:02.352Z,4.50
2017-08-19T21:04:30.079Z,4.20
2017-08-19T21:06:57.767Z,4.20
2017-08-19T21:09:25.468Z,3.50
2017-08-19T21:11:53.090Z,4.43
2017-08-19T21:14:20.867Z,4.50
2017-08-19T21:16:48.505Z,4.63
2017-08-19T21:19:16.133Z,3.73
2017-08-19T21:21:43.789Z,3.40
2017-08-19T21:24:11.414Z,3.40
2017-08-19T21:26:39.039Z,2.67
2017-08-19T21:29:06.721Z,3.53
2017-08-19T21:31:34.659Z,3.50
2017-08-19T21:34:02.286Z,3.83
2017-08-19T21:36:30.801Z,3.70
2017-08-19T21:38:58.435Z,3.17
2017-08-19T21:41:26.037Z,5.37
2017-08-19T21:43:53.626Z,5.00
2017-08-19T21:46:21.324Z,2.70
2017-08-19T21:48:49.525Z,2.70
2017-08-19T21:51:17.156Z,2.73
2017-08-19T21:53:44.764Z,2.57
2017-08-19T21:56:12.357Z,3.10
2017-08-19T21:58:39.944Z,2.90
2017-08-19T22:01:07.516Z,2.70
2017-08-19T22:03:35.090Z,2.97
2017-08-19T22:06:02.689Z,3.83
2017-08-19T22:08:30.281Z,2.80
2017-08-19T22:10:57.826Z,2.93
2017-08-19T22:13:25.388Z,2.90
2017-08-19T22:15:52.934Z,2.50
2017-08-19T22:18:20.514Z,3.97
2017-08-19T22:20:48.058Z,3.47
2017-08-19T22:23:15.597Z,3.77
2017-08-19T22:25:43.163Z,2.70
2017-08-19T22:28:10.737Z,3.60
2017-08-19T22:30:38.576Z,3.60
2017-08-19T22:33:06.124Z,3.27
2017-08-19T22:35:33.671Z,5.40
2017-08-19T22:38:01.225Z,2.90
2017-08-19T22:40:29.531Z,3.10
2017-08-19T22:42:58.510Z,3.07
2017-08-19T22:45:26.182Z,4.90
2017-08-19T22:47:53.836Z,4.00
2017-08-19T22:50:21.451Z,5.13
2017-08-19T22:52:49.099Z,2.70
2017-08-19T22:55:16.677Z,4.30
2017-08-19T22:57:44.270Z,3.90
2017-08-19T23:00:11.885Z,3.77
2017-08-19T23:02:39.442Z,4.10
2017-08-19T23:05:07.377Z,8.03
2017-08-19T23:07:34.918Z,3.40
2017-08-19T23:10:03.285Z,5.30
2017-08-19T23:12:30.859Z,4.10
2017-08-19T23:14:58.396Z,3.97
2017-08-19T23:17:25.986Z,3.83
2017-08-19T23:19:53.531Z,3.93
2017-08-19T23:22:21.123Z,3.50
2017-08-19T23:24:48.699Z,4.33
2017-08-19T23:27:16.267Z,4.43
2017-08-19T23:29:43.820Z,3.50
2017-08-19T23:32:11.384Z,4.70
2017-08-19T23:34:38.961Z,3.70
2017-08-19T23:37:06.522Z,3.70
2017-08-19T23:39:34.089Z,3.33
2017-08-19T23:42:02.455Z,4.47
2017-08-19T23:44:30.012Z,4.10
2017-08-19T23:46:57.576Z,4.90
2017-08-19T23:49:25.121Z,5.87
2017-08-19T23:51:52.697Z,5.30
2017-08-19T23:54:20.226Z,4.07
2017-08-19T23:56:48.141Z,3.63
2017-08-19T23:59:15.676Z,3.93
